CheckWX is a tool to help pilots better visualize weather data.  It is not intended as a substitute for an official pre-flight weather briefing.

00:21:00 UTC

FYOA METAR
Ondangwa Airport
Ondangwa, Namibia
Current

21 mins ago

FYOA 260000Z AUTO 12003KT //// // ////// 25/15 Q1015
Observed
Mar-26 @ 00:00 UTC
Wind
  • 120° at 3 KTS
Visibility
Temperature
25°C / 77°F
Dewpoint
15°C / 59°F
Humidity
54%
Altimeter
29.97" Hg
Pressure
1014.92 hPa
Previous

1 hour ago

FYOA 252300Z AUTO 13003KT //// // ////// 25/15 Q1015
Observed
Mar-25 @ 23:00 UTC
Wind
  • 130° at 3 KTS
Visibility
Temperature
25°C / 77°F
Dewpoint
15°C / 59°F
Humidity
54%
Altimeter
29.97" Hg
Pressure
1014.92 hPa
Previous

2 hours ago

FYOA 252200Z AUTO 14003KT //// // ////// 25/16 Q1015
Observed
Mar-25 @ 22:00 UTC
Wind
  • 140° at 3 KTS
Visibility
Temperature
25°C / 77°F
Dewpoint
16°C / 61°F
Humidity
57%
Altimeter
29.97" Hg
Pressure
1014.92 hPa